Time;durP1;ratioP1;P1;durP2;ratioP2;P2;SDS_P1;SDS_P2;PMS_P1;PMS_P2;Temp;Humidity;BMP_temperature;BMP_pressure;BME280_temperature;BME280_humidity;BME280_pressure;Samples;Min_cycle;Max_cycle;Signal;HPM_P1;HPM_P2
2023/08/04 00:01:02;;;;;;;8.80;6.30;;;;;;;23.40;100.00;100467.31;109923;1239;71268;-66
2023/08/04 00:03:31;;;;;;;9.20;6.80;;;;;;;23.23;100.00;100469.30;110004;1240;63814;-66
2023/08/04 00:06:00;;;;;;;7.90;6.40;;;;;;;23.06;100.00;100472.13;109865;1242;61843;-65
2023/08/04 00:08:28;;;;;;;8.20;7.20;;;;;;;22.98;100.00;100465.42;110024;1240;61280;-66
2023/08/04 00:10:57;;;;;;;7.70;6.60;;;;;;;22.92;100.00;100463.11;109999;1241;63274;-65
2023/08/04 00:13:26;;;;;;;8.10;6.80;;;;;;;22.88;100.00;100460.23;110020;1241;71668;-68
2023/08/04 00:15:54;;;;;;;9.40;7.20;;;;;;;22.85;100.00;100463.05;110058;1241;70799;-68
2023/08/04 00:18:23;;;;;;;10.30;7.00;;;;;;;22.86;100.00;100467.42;110013;1241;63930;-68
2023/08/04 00:20:52;;;;;;;9.60;7.30;;;;;;;22.81;100.00;100472.10;110002;1241;57165;-67
2023/08/04 00:23:21;;;;;;;9.10;7.20;;;;;;;22.76;100.00;100473.98;109884;1241;60178;-67
2023/08/04 00:25:49;;;;;;;9.00;7.40;;;;;;;22.71;100.00;100474.83;109969;1239;72900;-67
2023/08/04 00:28:19;;;;;;;9.70;7.10;;;;;;;22.65;100.00;100472.98;110028;1241;62109;-67
2023/08/04 00:30:48;;;;;;;10.10;7.40;;;;;;;22.57;100.00;100468.12;109804;1239;70244;-68
2023/08/04 00:33:17;;;;;;;11.90;7.10;;;;;;;22.47;100.00;100465.79;109810;1240;63074;-65
2023/08/04 00:35:46;;;;;;;7.80;6.70;;;;;;;22.37;100.00;100466.00;109974;1240;61617;-66
2023/08/04 00:38:14;;;;;;;7.90;6.80;;;;;;;22.25;100.00;100467.39;109869;1239;61534;-66
2023/08/04 00:40:43;;;;;;;9.00;7.20;;;;;;;22.15;100.00;100469.27;109894;1242;62712;-66
2023/08/04 00:43:12;;;;;;;8.70;7.50;;;;;;;22.04;100.00;100474.77;109877;1241;61437;-67
2023/08/04 00:45:41;;;;;;;8.20;7.00;;;;;;;21.97;100.00;100477.43;109770;1239;59031;-67
2023/08/04 00:48:10;;;;;;;9.70;6.80;;;;;;;21.94;100.00;100475.58;110011;1240;73546;-66
2023/08/04 00:50:41;;;;;;;8.80;7.10;;;;;;;21.87;100.00;100474.52;109983;1241;62836;-68
2023/08/04 00:53:11;;;;;;;11.00;7.40;;;;;;;21.80;100.00;100474.93;109905;1241;57705;-67
2023/08/04 00:55:42;;;;;;;8.90;7.30;;;;;;;21.72;100.00;100474.16;109787;1240;62817;-72
2023/08/04 00:58:11;;;;;;;12.40;7.60;;;;;;;21.64;100.00;100478.13;109897;1241;71956;-67
2023/08/04 01:00:40;;;;;;;10.10;7.50;;;;;;;21.59;100.00;100476.64;109872;1242;69482;-72
2023/08/04 01:03:09;;;;;;;10.10;7.80;;;;;;;21.56;100.00;100478.82;110031;1240;74592;-67
2023/08/04 01:06:35;;;;;;;10.00;7.30;;;;;;;21.56;100.00;100480.78;110001;1241;62548;-68
2023/08/04 01:09:47;;;;;;;10.10;7.50;;;;;;;21.58;100.00;100483.02;109828;1241;59219;-67
2023/08/04 01:12:25;;;;;;;10.90;7.80;;;;;;;21.53;100.00;100485.94;109812;1242;63322;-67
2023/08/04 01:14:57;;;;;;;10.70;7.40;;;;;;;21.45;100.00;100486.66;109934;1240;71135;-67
2023/08/04 01:17:30;;;;;;;10.70;7.30;;;;;;;21.39;100.00;100491.77;109926;1241;70337;-68
2023/08/04 01:19:59;;;;;;;10.10;7.60;;;;;;;21.31;100.00;100494.52;109818;1241;74025;-68
2023/08/04 01:22:29;;;;;;;8.30;7.30;;;;;;;21.23;100.00;100498.67;109998;1240;62579;-68
2023/08/04 01:24:57;;;;;;;10.80;8.60;;;;;;;21.19;100.00;100501.27;109980;1239;60571;-68
2023/08/04 01:27:35;;;;;;;8.30;7.00;;;;;;;21.24;100.00;100494.36;110004;1241;64317;-67
2023/08/04 01:30:10;;;;;;;11.10;8.00;;;;;;;21.24;100.00;100490.93;109926;1241;72273;-67
2023/08/04 01:32:39;;;;;;;10.50;8.00;;;;;;;21.19;100.00;100487.17;109872;1241;59405;-67
2023/08/04 01:35:09;;;;;;;10.90;7.50;;;;;;;21.10;100.00;100489.80;109874;1241;73052;-67
2023/08/04 01:37:38;;;;;;;9.30;8.10;;;;;;;20.99;100.00;100493.70;109759;1243;57682;-67
2023/08/04 01:40:07;;;;;;;8.90;7.40;;;;;;;21.03;100.00;100490.25;109882;1241;61905;-67
2023/08/04 01:42:36;;;;;;;9.20;7.50;;;;;;;21.01;100.00;100491.73;109915;1241;62383;-68
2023/08/04 01:45:06;;;;;;;11.10;7.40;;;;;;;20.96;100.00;100492.48;109763;1241;70535;-66
2023/08/04 01:47:35;;;;;;;8.70;7.70;;;;;;;20.88;100.00;100490.13;109914;1240;70787;-65
2023/08/04 01:50:06;;;;;;;10.20;7.90;;;;;;;20.81;100.00;100495.59;109805;1241;72943;-67
2023/08/04 01:52:36;;;;;;;8.80;7.20;;;;;;;20.76;100.00;100494.09;110014;1239;61829;-67
2023/08/04 01:55:06;;;;;;;9.80;7.40;;;;;;;20.72;100.00;100497.20;109903;1241;57740;-66
2023/08/04 01:57:34;;;;;;;12.10;8.40;;;;;;;20.66;100.00;100489.80;109963;1241;72745;-65
2023/08/04 02:00:04;;;;;;;8.70;7.30;;;;;;;20.75;100.00;100498.44;109820;1242;61897;-66
2023/08/04 02:02:39;;;;;;;11.40;7.90;;;;;;;20.72;100.00;100502.06;109962;1240;70299;-65
2023/08/04 02:05:08;;;;;;;10.40;7.80;;;;;;;20.64;100.00;100498.55;109848;1240;74628;-65
2023/08/04 02:07:37;;;;;;;9.00;7.20;;;;;;;20.57;100.00;100497.89;109832;1242;57696;-65
2023/08/04 02:10:07;;;;;;;13.70;7.40;;;;;;;20.50;100.00;100503.53;109883;1240;57598;-65
2023/08/04 02:12:36;;;;;;;10.70;7.60;;;;;;;20.47;100.00;100507.46;109944;1241;72967;-65
2023/08/04 02:15:05;;;;;;;9.30;7.50;;;;;;;20.46;100.00;100512.81;109815;1242;72444;-65
2023/08/04 02:17:35;;;;;;;10.80;8.30;;;;;;;20.46;100.00;100512.31;109844;1241;70468;-65
2023/08/04 02:20:06;;;;;;;10.70;7.70;;;;;;;20.49;100.00;100510.25;109713;1242;72226;-65
2023/08/04 02:22:34;;;;;;;9.90;7.70;;;;;;;20.50;100.00;100508.17;109799;1241;63303;-71
2023/08/04 02:25:04;;;;;;;10.90;7.50;;;;;;;20.48;100.00;100510.88;109546;1242;57204;-71
2023/08/04 02:27:32;;;;;;;8.90;7.40;;;;;;;20.43;100.00;100507.88;109684;1242;73504;-71
2023/08/04 02:30:02;;;;;;;10.40;8.10;;;;;;;20.38;100.00;100508.91;109810;1239;61876;-70
2023/08/04 02:32:31;;;;;;;10.00;7.50;;;;;;;20.42;100.00;100506.69;109694;1241;70547;-70
2023/08/04 02:35:00;;;;;;;9.80;7.40;;;;;;;20.44;100.00;100510.63;109796;1240;74360;-71
2023/08/04 02:37:28;;;;;;;9.10;8.20;;;;;;;20.41;100.00;100513.46;109566;1242;62811;-71
2023/08/04 02:39:57;;;;;;;9.60;7.30;;;;;;;20.41;100.00;100518.20;109772;1242;57933;-71
2023/08/04 02:42:27;;;;;;;11.40;8.40;;;;;;;20.40;100.00;100521.16;109996;1241;62807;-72
2023/08/04 02:44:56;;;;;;;9.80;7.60;;;;;;;20.37;100.00;100521.63;109878;1240;62417;-72
2023/08/04 02:47:25;;;;;;;11.70;7.30;;;;;;;20.36;100.00;100524.21;109985;1241;60167;-72
2023/08/04 02:49:55;;;;;;;11.40;7.60;;;;;;;20.34;100.00;100522.10;109979;1240;73854;-72
2023/08/04 02:52:24;;;;;;;9.90;8.90;;;;;;;20.31;100.00;100521.67;109798;1242;57666;-71
2023/08/04 02:54:56;;;;;;;11.20;8.20;;;;;;;20.41;100.00;100521.91;109905;1239;57417;-73
2023/08/04 02:57:30;;;;;;;13.60;8.00;;;;;;;20.43;100.00;100525.88;109996;1241;71777;-71
2023/08/04 02:59:59;;;;;;;9.10;7.50;;;;;;;20.37;100.00;100528.52;109941;1239;61070;-71
2023/08/04 03:02:28;;;;;;;11.70;8.50;;;;;;;20.30;100.00;100525.17;109739;1240;60079;-71
2023/08/04 03:04:57;;;;;;;11.10;8.40;;;;;;;20.26;100.00;100526.29;109875;1239;62452;-72
2023/08/04 03:07:26;;;;;;;10.20;7.80;;;;;;;20.22;100.00;100522.91;109863;1242;62154;-72
2023/08/04 03:09:54;;;;;;;12.00;8.20;;;;;;;20.18;100.00;100521.90;109868;1240;60659;-72
2023/08/04 03:12:23;;;;;;;13.80;8.50;;;;;;;20.14;100.00;100523.60;109899;1239;62580;-71
2023/08/04 03:14:52;;;;;;;16.10;10.30;;;;;;;20.11;100.00;100523.46;109936;1241;70647;-72
2023/08/04 03:17:20;;;;;;;16.80;12.90;;;;;;;20.07;100.00;100529.19;109892;1240;69970;-71
2023/08/04 03:19:49;;;;;;;15.10;13.50;;;;;;;20.07;100.00;100530.37;110002;1239;62852;-72
2023/08/04 03:22:18;;;;;;;15.30;12.10;;;;;;;20.20;100.00;100534.79;109833;1242;57648;-71
2023/08/04 03:24:47;;;;;;;18.60;15.70;;;;;;;20.25;100.00;100538.47;109994;1239;57673;-72
2023/08/04 03:27:16;;;;;;;31.60;22.60;;;;;;;20.23;100.00;100539.34;109986;1241;62779;-71
2023/08/04 03:29:46;;;;;;;30.50;23.70;;;;;;;20.24;100.00;100538.60;109732;1241;71957;-70
2023/08/04 03:32:15;;;;;;;16.60;13.30;;;;;;;20.27;100.00;100541.44;110032;1240;60108;-70
2023/08/04 03:34:44;;;;;;;15.70;11.90;;;;;;;20.34;100.00;100541.85;109986;1239;73892;-71
2023/08/04 03:37:12;;;;;;;12.00;9.40;;;;;;;20.45;100.00;100536.63;109973;1241;63392;-69
2023/08/04 03:39:41;;;;;;;19.00;9.30;;;;;;;20.47;100.00;100538.34;109758;1240;57724;-70
2023/08/04 03:42:10;;;;;;;12.30;8.70;;;;;;;20.49;100.00;100542.73;109970;1239;71490;-71
2023/08/04 03:44:39;;;;;;;13.30;10.40;;;;;;;20.51;100.00;100547.63;109832;1241;72463;-72
2023/08/04 03:47:07;;;;;;;19.10;15.70;;;;;;;20.58;100.00;100551.05;109954;1240;60182;-72
2023/08/04 03:49:36;;;;;;;17.50;14.70;;;;;;;20.66;100.00;100549.91;109909;1240;62218;-71
2023/08/04 03:52:05;;;;;;;20.70;15.80;;;;;;;20.84;100.00;100545.83;109948;1241;62652;-71
2023/08/04 03:54:34;;;;;;;15.80;10.90;;;;;;;20.93;100.00;100544.61;109872;1240;61524;-71
2023/08/04 03:57:03;;;;;;;14.40;11.60;;;;;;;20.96;100.00;100546.60;109991;1241;63587;-71
2023/08/04 03:59:32;;;;;;;15.80;11.50;;;;;;;20.99;100.00;100546.40;110025;1239;61539;-71
2023/08/04 04:02:01;;;;;;;13.10;10.70;;;;;;;21.10;100.00;100548.39;109916;1239;59797;-71
2023/08/04 04:04:30;;;;;;;15.10;10.60;;;;;;;21.21;100.00;100550.10;109852;1240;72641;-71
2023/08/04 04:06:58;;;;;;;17.20;10.40;;;;;;;21.29;100.00;100549.55;109947;1239;63584;-71
2023/08/04 04:09:27;;;;;;;19.20;11.30;;;;;;;21.34;100.00;100548.88;109962;1239;57096;-71
2023/08/04 04:11:56;;;;;;;17.60;12.40;;;;;;;21.35;100.00;100540.27;109982;1239;62727;-71
2023/08/04 04:14:25;;;;;;;19.20;12.60;;;;;;;21.49;100.00;100548.04;109968;1239;71223;-70
2023/08/04 04:16:53;;;;;;;14.90;11.80;;;;;;;21.60;100.00;100548.33;109930;1240;59895;-71
2023/08/04 04:19:22;;;;;;;16.70;10.10;;;;;;;21.71;100.00;100546.25;109987;1239;62253;-71
2023/08/04 04:21:51;;;;;;;12.60;8.80;;;;;;;21.82;100.00;100544.49;109854;1241;62761;-70
2023/08/04 04:24:19;;;;;;;13.10;9.00;;;;;;;21.97;100.00;100546.95;110024;1239;60721;-71
2023/08/04 04:26:48;;;;;;;14.00;9.20;;;;;;;22.11;100.00;100549.60;109931;1240;63563;-71
2023/08/04 04:29:17;;;;;;;13.30;8.50;;;;;;;22.26;100.00;100548.39;110078;1239;61944;-71
2023/08/04 04:31:46;;;;;;;13.20;8.10;;;;;;;22.39;100.00;100550.76;110026;1239;69475;-70
2023/08/04 04:34:15;;;;;;;11.20;8.30;;;;;;;22.55;100.00;100551.67;109858;1242;72134;-70
2023/08/04 04:36:43;;;;;;;13.10;8.70;;;;;;;22.68;100.00;100549.39;110005;1239;63038;-72
2023/08/04 04:39:12;;;;;;;13.30;9.20;;;;;;;22.79;100.00;100549.80;110035;1240;57281;-73
2023/08/04 04:41:41;;;;;;;12.10;8.50;;;;;;;22.91;100.00;100548.39;109925;1239;62915;-71
2023/08/04 04:44:10;;;;;;;13.50;8.80;;;;;;;23.06;100.00;100551.92;109993;1239;70569;-72
2023/08/04 04:46:39;;;;;;;19.30;9.30;;;;;;;23.18;100.00;100558.19;110024;1239;59613;-72
2023/08/04 04:49:08;;;;;;;12.80;8.70;;;;;;;23.32;100.00;100558.87;109881;1242;73017;-71
2023/08/04 04:51:37;;;;;;;11.10;8.20;;;;;;;23.45;100.00;100559.46;109980;1239;61609;-71
2023/08/04 04:54:06;;;;;;;14.80;8.20;;;;;;;23.57;100.00;100563.57;109979;1239;60834;-74
2023/08/04 04:56:35;;;;;;;11.00;7.40;;;;;;;23.70;100.00;100568.37;109724;1239;73872;-73
2023/08/04 04:59:04;;;;;;;10.00;7.90;;;;;;;23.82;100.00;100576.04;109831;1238;61076;-70
2023/08/04 05:01:33;;;;;;;13.40;7.40;;;;;;;23.94;100.00;100577.42;109965;1238;69600;-70
2023/08/04 05:04:02;;;;;;;11.30;8.20;;;;;;;24.03;100.00;100576.63;110044;1238;63004;-70
2023/08/04 05:06:31;;;;;;;12.90;8.30;;;;;;;24.15;100.00;100577.55;109942;1239;57599;-70
2023/08/04 05:09:00;;;;;;;13.50;8.10;;;;;;;24.22;100.00;100577.80;109919;1238;58808;-70
2023/08/04 05:11:29;;;;;;;12.60;8.30;;;;;;;24.33;100.00;100574.45;109932;1238;73791;-70
2023/08/04 05:13:57;;;;;;;14.50;7.10;;;;;;;24.45;100.00;100572.31;109815;1238;62748;-70
2023/08/04 05:16:26;;;;;;;10.60;7.60;;;;;;;24.51;100.00;100570.63;109796;1239;60205;-73
2023/08/04 05:18:55;;;;;;;12.50;7.70;;;;;;;24.60;100.00;100573.67;109743;1238;71657;-78
2023/08/04 05:21:24;;;;;;;12.80;7.70;;;;;;;24.71;100.00;100574.12;109750;1238;63176;-72
2023/08/04 05:23:52;;;;;;;13.20;8.40;;;;;;;24.82;100.00;100574.27;109942;1238;57178;-68
2023/08/04 05:26:21;;;;;;;13.50;8.20;;;;;;;24.89;100.00;100572.05;110054;1239;62724;-67
2023/08/04 05:28:50;;;;;;;14.80;8.10;;;;;;;24.99;100.00;100575.90;109940;1238;63392;-68
2023/08/04 05:31:18;;;;;;;12.50;7.80;;;;;;;25.01;100.00;100576.17;109949;1238;70538;-68
2023/08/04 05:33:47;;;;;;;13.30;7.60;;;;;;;25.07;100.00;100575.69;109937;1238;62220;-68
2023/08/04 05:36:16;;;;;;;14.30;8.20;;;;;;;25.19;100.00;100571.36;110036;1238;58074;-68
2023/08/04 05:38:45;;;;;;;11.80;7.80;;;;;;;25.30;100.00;100572.93;109971;1238;60248;-68
2023/08/04 05:41:13;;;;;;;11.20;7.40;;;;;;;25.35;100.00;100574.88;109952;1238;73216;-68
2023/08/04 05:43:42;;;;;;;14.00;8.20;;;;;;;25.40;100.00;100573.52;110027;1238;61393;-68
2023/08/04 05:46:15;;;;;;;13.70;8.10;;;;;;;25.52;100.00;100575.60;110069;1238;71375;-69
2023/08/04 05:48:44;;;;;;;10.40;7.00;;;;;;;25.65;100.00;100574.92;110069;1238;64784;-71
2023/08/04 05:51:14;;;;;;;12.40;7.90;;;;;;;25.78;100.00;100572.70;110015;1239;61400;-70
2023/08/04 05:53:43;;;;;;;13.00;8.20;;;;;;;25.88;100.00;100570.77;109968;1240;57732;-72
2023/08/04 05:56:12;;;;;;;13.20;7.70;;;;;;;25.97;100.00;100569.80;109967;1239;62037;-70
2023/08/04 05:58:41;;;;;;;12.90;7.50;;;;;;;26.09;100.00;100572.95;109994;1238;72627;-70
2023/08/04 06:01:09;;;;;;;15.10;7.30;;;;;;;26.19;100.00;100575.72;110032;1238;69850;-69
2023/08/04 06:03:38;;;;;;;12.30;7.30;;;;;;;26.27;100.00;100579.98;109989;1238;63549;-70
2023/08/04 06:06:07;;;;;;;9.20;6.80;;;;;;;26.37;100.00;100581.97;110023;1239;57149;-72
2023/08/04 06:08:36;;;;;;;12.80;8.50;;;;;;;26.50;100.00;100585.36;110039;1239;58239;-70
2023/08/04 06:11:05;;;;;;;14.60;11.10;;;;;;;26.62;100.00;100587.98;109945;1239;62747;-72
2023/08/04 06:13:34;;;;;;;16.30;8.20;;;;;;;26.64;100.00;100588.91;109991;1238;71428;-70
2023/08/04 06:16:03;;;;;;;15.80;7.80;;;;;;;26.71;100.00;100590.17;110059;1241;60469;-70
2023/08/04 06:18:33;;;;;;;12.40;8.20;;;;;;;26.82;100.00;100588.30;109717;1239;63211;-71
2023/08/04 06:21:01;;;;;;;26.30;8.60;;;;;;;26.86;100.00;100585.41;109567;1241;61207;-68
2023/08/04 06:23:30;;;;;;;10.20;7.30;;;;;;;27.01;100.00;100583.58;110035;1239;57201;-70
2023/08/04 06:25:59;;;;;;;12.50;7.70;;;;;;;27.14;100.00;100586.31;110056;1239;61952;-72
2023/08/04 06:28:28;;;;;;;10.40;6.90;;;;;;;27.27;100.00;100586.06;110006;1240;71561;-69
2023/08/04 06:30:57;;;;;;;13.80;7.60;;;;;;;27.41;100.00;100587.79;109842;1240;69471;-69
2023/08/04 06:33:25;;;;;;;12.90;7.90;;;;;;;27.44;100.00;100588.73;110055;1238;74141;-68
2023/08/04 06:35:54;;;;;;;9.90;7.20;;;;;;;27.53;100.00;100592.52;110098;1239;57159;-67
2023/08/04 06:38:23;;;;;;;15.30;7.60;;;;;;;27.66;100.00;100590.76;110017;1239;57667;-69
2023/08/04 06:40:52;;;;;;;10.90;7.30;;;;;;;27.78;100.00;100587.81;109933;1238;74078;-68
2023/08/04 06:43:20;;;;;;;12.90;7.80;;;;;;;27.72;100.00;100589.66;109815;1238;72327;-68
2023/08/04 06:45:50;;;;;;;10.10;7.70;;;;;;;27.76;100.00;100589.61;109930;1241;59642;-66
2023/08/04 06:48:19;;;;;;;11.60;7.40;;;;;;;27.86;100.00;100592.29;109917;1238;63238;-67
2023/08/04 06:50:48;;;;;;;12.30;7.40;;;;;;;27.96;100.00;100592.44;110005;1239;57647;-66
2023/08/04 06:53:17;;;;;;;13.40;7.50;;;;;;;28.10;100.00;100593.89;110050;1238;57701;-67
2023/08/04 06:55:45;;;;;;;14.50;7.80;;;;;;;28.27;100.00;100593.26;110039;1238;73092;-69
2023/08/04 06:58:14;;;;;;;17.40;7.70;;;;;;;28.35;100.00;100589.40;110045;1239;72023;-69
2023/08/04 07:00:45;;;;;;;13.60;7.40;;;;;;;28.35;100.00;100589.16;110068;1239;69710;-69
2023/08/04 07:03:14;;;;;;;10.20;7.30;;;;;;;28.34;100.00;100587.96;109991;1238;74341;-69
2023/08/04 07:05:43;;;;;;;13.20;7.30;;;;;;;28.42;100.00;100587.48;110011;1239;57765;-67
2023/08/04 07:08:12;;;;;;;11.70;7.30;;;;;;;28.36;100.00;100586.73;110029;1238;57628;-67
2023/08/04 07:10:41;;;;;;;10.40;7.30;;;;;;;28.48;100.00;100586.71;110010;1239;73423;-67
2023/08/04 07:13:09;;;;;;;12.90;7.30;;;;;;;28.63;100.00;100588.29;109951;1239;63512;-68
2023/08/04 07:15:38;;;;;;;10.10;7.20;;;;;;;28.73;100.00;100592.13;109993;1240;59765;-68
2023/08/04 07:18:07;;;;;;;9.70;6.60;;;;;;;28.85;100.00;100595.27;109838;1242;62391;-70
2023/08/04 07:20:37;;;;;;;12.50;7.20;;;;;;;28.93;100.00;100600.40;109749;1240;57745;-67
2023/08/04 07:23:06;;;;;;;10.50;7.50;;;;;;;29.08;100.00;100601.02;109887;1240;61932;-68
2023/08/04 07:25:34;;;;;;;14.90;7.80;;;;;;;29.18;100.00;100598.66;109931;1238;73206;-67
2023/08/04 07:28:03;;;;;;;8.30;6.40;;;;;;;29.35;97.82;100600.05;109749;1241;61820;-68
2023/08/04 07:30:32;;;;;;;13.30;6.50;;;;;;;29.48;89.83;100599.65;109858;1241;59792;-69
2023/08/04 07:33:04;;;;;;;7.80;6.70;;;;;;;29.56;88.69;100597.27;109934;1241;63057;-71
2023/08/04 07:35:33;;;;;;;9.70;7.00;;;;;;;29.68;88.25;100600.95;109961;1239;61001;-77
2023/08/04 07:38:02;;;;;;;12.70;7.80;;;;;;;29.81;88.10;100602.38;109973;1240;60368;-69
2023/08/04 07:40:31;;;;;;;11.20;7.20;;;;;;;29.92;87.27;100595.98;109983;1239;64855;-70
2023/08/04 07:42:59;;;;;;;10.20;8.40;;;;;;;30.00;86.60;100598.11;109847;1242;72454;-76
2023/08/04 07:45:28;;;;;;;11.30;7.10;;;;;;;30.04;84.84;100599.39;109854;1242;59695;-64
2023/08/04 07:47:57;;;;;;;13.00;7.20;;;;;;;30.04;85.13;100600.18;109837;1242;63268;-69
2023/08/04 07:50:26;;;;;;;9.10;6.80;;;;;;;30.18;85.51;100601.48;109903;1240;60450;-64
2023/08/04 07:52:54;;;;;;;12.40;7.10;;;;;;;30.28;83.89;100599.02;109957;1239;61293;-65
2023/08/04 07:55:23;;;;;;;10.00;6.80;;;;;;;30.38;84.15;100600.58;109952;1241;63244;-70
2023/08/04 07:57:52;;;;;;;8.40;6.70;;;;;;;30.50;83.16;100597.86;109980;1239;61499;-69
2023/08/04 08:00:21;;;;;;;11.20;6.80;;;;;;;30.69;84.41;100598.45;110013;1238;69647;-72
2023/08/04 08:02:49;;;;;;;11.40;7.00;;;;;;;30.83;82.38;100597.16;109920;1240;64338;-70
2023/08/04 08:05:18;;;;;;;9.00;6.50;;;;;;;30.88;80.79;100593.61;109958;1241;57249;-71
2023/08/04 08:07:47;;;;;;;12.00;6.30;;;;;;;30.99;81.17;100595.17;109877;1241;57648;-70
2023/08/04 08:10:17;;;;;;;8.10;6.30;;;;;;;31.19;80.51;100593.60;109807;1241;64769;-70
2023/08/04 08:12:46;;;;;;;8.40;6.20;;;;;;;31.27;77.25;100591.52;109811;1240;71976;-71
2023/08/04 08:15:14;;;;;;;14.40;7.40;;;;;;;31.45;77.14;100592.13;109949;1239;70730;-71
2023/08/04 08:17:43;;;;;;;10.30;6.60;;;;;;;31.51;76.95;100591.77;109975;1241;62689;-71
2023/08/04 08:20:12;;;;;;;9.40;6.00;;;;;;;31.30;74.65;100594.14;109946;1239;57589;-70
2023/08/04 08:22:41;;;;;;;8.20;6.90;;;;;;;31.38;76.10;100599.07;109868;1240;60966;-70
2023/08/04 08:25:12;;;;;;;9.20;6.60;;;;;;;31.44;76.45;100596.49;109841;1240;64954;-70
2023/08/04 08:27:41;;;;;;;11.80;6.30;;;;;;;31.64;76.31;100594.88;109885;1241;61842;-71
2023/08/04 08:30:11;;;;;;;9.20;6.40;;;;;;;31.73;75.98;100598.60;110021;1240;69123;-71
2023/08/04 08:32:40;;;;;;;11.70;6.10;;;;;;;31.95;75.94;100596.31;109852;1241;63447;-70
2023/08/04 08:35:09;;;;;;;7.90;6.10;;;;;;;32.00;73.95;100596.90;109947;1240;57764;-70
2023/08/04 08:37:38;;;;;;;11.40;7.00;;;;;;;31.85;74.99;100593.45;109711;1242;57446;-70
2023/08/04 08:40:07;;;;;;;10.20;6.80;;;;;;;32.01;75.35;100597.02;109779;1241;73233;-70
2023/08/04 08:42:36;;;;;;;10.30;6.80;;;;;;;32.12;75.31;100599.66;109847;1241;60531;-71
2023/08/04 08:45:06;;;;;;;9.20;6.70;;;;;;;32.26;74.43;100598.77;109870;1241;59818;-71
2023/08/04 08:47:36;;;;;;;14.20;7.00;;;;;;;32.31;72.09;100596.29;109747;1241;73552;-71
2023/08/04 08:50:06;;;;;;;10.90;6.70;;;;;;;32.22;71.45;100593.45;109807;1241;57988;-72
2023/08/04 08:52:39;;;;;;;9.30;6.60;;;;;;;32.16;71.35;100591.27;109826;1240;57175;-70
2023/08/04 08:55:09;;;;;;;11.90;7.50;;;;;;;32.07;71.34;100593.20;109519;1240;64600;-72
2023/08/04 08:57:40;;;;;;;10.20;7.00;;;;;;;32.08;72.59;100591.91;109572;1241;62615;-70
2023/08/04 09:00:13;;;;;;;7.50;6.40;;;;;;;32.25;72.12;100592.45;109609;1240;59975;-70
2023/08/04 09:02:46;;;;;;;13.20;6.60;;;;;;;32.47;72.03;100591.29;109823;1240;62263;-71
2023/08/04 09:05:16;;;;;;;10.10;6.80;;;;;;;32.79;73.06;100584.55;109492;1244;61043;-70
2023/08/04 09:07:47;;;;;;;10.70;6.90;;;;;;;33.03;72.22;100585.61;109676;1242;57617;-70
2023/08/04 09:10:17;;;;;;;10.70;6.90;;;;;;;33.10;71.39;100585.70;109258;1241;490712;-70
2023/08/04 09:12:48;;;;;;;8.90;6.60;;;;;;;33.16;72.02;100583.63;109730;1241;72913;-71
2023/08/04 09:15:17;;;;;;;10.90;6.70;;;;;;;33.29;72.27;100581.80;109738;1240;71132;-71
2023/08/04 09:17:45;;;;;;;10.30;6.70;;;;;;;33.35;71.47;100581.29;109834;1242;74141;-70
2023/08/04 09:20:40;;;;;;;10.20;7.50;;;;;;;33.45;71.70;100581.39;109960;1239;61443;-70
2023/08/04 09:23:11;;;;;;;12.10;7.70;;;;;;;33.43;71.19;100578.46;109925;1241;57686;-71
2023/08/04 09:25:53;;;;;;;10.40;6.90;;;;;;;33.48;70.83;100578.85;109883;1240;64607;-71
2023/08/04 09:28:21;;;;;;;12.20;7.80;;;;;;;33.38;70.32;100576.42;109760;1241;72631;-71
2023/08/04 09:31:12;;;;;;;13.60;6.90;;;;;;;33.44;70.43;100574.83;110009;1239;60991;-70
2023/08/04 09:33:43;;;;;;;10.60;6.20;;;;;;;33.71;70.16;100572.32;109968;1239;63045;-70
2023/08/04 09:36:18;;;;;;;8.90;6.40;;;;;;;33.84;68.97;100569.95;109872;1242;57850;-70
2023/08/04 09:38:47;;;;;;;10.20;6.40;;;;;;;34.06;68.43;100566.95;109743;1240;57660;-71
2023/08/04 09:41:17;;;;;;;9.20;6.50;;;;;;;33.95;67.62;100562.95;109979;1241;74066;-71
2023/08/04 09:43:49;;;;;;;8.10;6.40;;;;;;;34.08;67.66;100565.20;109973;1239;61755;-70
2023/08/04 09:46:18;;;;;;;8.80;6.60;;;;;;;34.21;67.31;100562.96;109711;1241;70736;-70
2023/08/04 09:48:47;;;;;;;7.20;6.30;;;;;;;34.36;66.52;100560.18;109939;1240;73353;-70
2023/08/04 09:51:20;;;;;;;8.70;6.30;;;;;;;34.54;66.26;100556.99;109824;1242;60279;-71
2023/08/04 09:53:52;;;;;;;7.20;6.00;;;;;;;34.66;65.49;100553.83;109842;1240;59464;-71
2023/08/04 09:56:27;;;;;;;9.50;6.60;;;;;;;34.68;64.93;100551.02;109609;1241;65374;-71
2023/08/04 09:58:57;;;;;;;9.80;6.50;;;;;;;34.68;64.28;100554.74;109825;1241;63863;-71
2023/08/04 10:01:26;;;;;;;8.20;7.30;;;;;;;34.65;63.96;100553.23;109772;1239;60192;-70
2023/08/04 10:03:57;;;;;;;8.50;6.70;;;;;;;34.72;64.05;100550.45;109805;1239;62306;-71
2023/08/04 10:06:26;;;;;;;9.50;6.80;;;;;;;34.92;63.51;100550.73;109742;1241;57829;-71
2023/08/04 10:08:55;;;;;;;12.00;7.70;;;;;;;35.02;62.30;100545.13;109613;1240;57719;-70
2023/08/04 10:11:26;;;;;;;10.00;7.10;;;;;;;35.04;61.09;100547.88;109949;1239;72685;-70
2023/08/04 10:13:56;;;;;;;9.20;7.00;;;;;;;35.15;62.17;100544.58;109966;1240;71488;-71
2023/08/04 10:16:34;;;;;;;9.30;7.20;;;;;;;35.16;60.74;100543.17;109888;1240;59362;-71
2023/08/04 10:19:06;;;;;;;8.90;7.10;;;;;;;35.07;58.93;100547.54;109888;1242;74166;-70
2023/08/04 10:21:41;;;;;;;9.40;6.70;;;;;;;35.12;59.70;100541.88;109743;1241;57139;-70
2023/08/04 10:24:14;;;;;;;10.30;6.90;;;;;;;35.25;59.31;100535.91;109726;1241;60988;-70
2023/08/04 10:26:52;;;;;;;9.20;6.20;;;;;;;34.99;61.28;100536.07;109730;1242;63250;-70
2023/08/04 10:29:32;;;;;;;7.60;6.80;;;;;;;35.06;61.02;100534.84;109609;1240;61995;-71
2023/08/04 10:32:07;;;;;;;8.60;6.40;;;;;;;35.02;59.87;100538.43;109956;1239;61638;-71
2023/08/04 10:34:44;;;;;;;9.00;6.70;;;;;;;35.30;60.12;100538.48;109742;1241;74147;-70
2023/08/04 10:37:15;;;;;;;9.60;7.00;;;;;;;35.70;58.53;100532.25;109875;1240;61423;-72
2023/08/04 10:39:56;;;;;;;9.20;7.10;;;;;;;35.67;58.01;100529.39;109584;1239;61094;-71
2023/08/04 10:42:30;;;;;;;9.90;6.70;;;;;;;35.65;58.26;100530.70;109697;1241;73428;-71
2023/08/04 10:45:07;;;;;;;8.70;7.20;;;;;;;35.58;58.49;100531.40;109738;1241;71748;-71
2023/08/04 10:47:48;;;;;;;7.80;6.50;;;;;;;36.05;58.07;100531.16;109819;1240;70038;-71
2023/08/04 10:50:36;;;;;;;9.80;6.80;;;;;;;36.53;56.30;100526.79;109725;1239;74778;-70
2023/08/04 10:53:05;;;;;;;9.00;6.20;;;;;;;36.46;53.88;100525.39;109692;1242;60981;-70
2023/08/04 10:55:34;;;;;;;8.40;6.70;;;;;;;36.22;53.71;100522.79;109714;1240;57705;-71
2023/08/04 10:58:15;;;;;;;10.10;7.10;;;;;;;36.42;53.41;100530.17;109845;1241;63202;-71
2023/08/04 11:00:45;;;;;;;6.80;5.70;;;;;;;36.67;52.62;100526.87;109822;1239;61657;-71
2023/08/04 11:03:28;;;;;;;8.70;7.10;;;;;;;36.92;52.15;100527.40;109800;1239;69436;-72
2023/08/04 11:05:57;;;;;;;8.00;6.60;;;;;;;37.04;51.27;100526.66;109800;1240;64811;-70
2023/08/04 11:08:26;;;;;;;9.40;6.30;;;;;;;37.30;50.42;100526.17;109791;1239;57142;-71
2023/08/04 11:10:57;;;;;;;8.20;7.00;;;;;;;37.53;49.68;100524.61;109818;1239;57672;-71
2023/08/04 11:13:26;;;;;;;11.00;6.60;;;;;;;37.65;49.16;100513.65;109578;1243;62528;-71
2023/08/04 11:15:55;;;;;;;10.30;6.30;;;;;;;37.59;49.27;100509.79;109733;1242;69987;-70
2023/08/04 11:18:27;;;;;;;6.20;5.50;;;;;;;37.87;48.16;100517.08;109844;1239;68618;-71
2023/08/04 11:21:01;;;;;;;8.30;5.80;;;;;;;38.38;46.05;100518.04;109825;1239;73183;-71